Time;durP1;ratioP1;P1;durP2;ratioP2;P2;SDS_P1;SDS_P2;PMS_P1;PMS_P2;Temp;Humidity;BMP_temperature;BMP_pressure;BME280_temperature;BME280_humidity;BME280_pressure;Samples;Min_cycle;Max_cycle;Signal;HPM_P1;HPM_P2
2022/01/10 00:02:22;;;;;;;28.65;13.02;;;1.80;99.90;;;;;;5095155;28;20053;-82
2022/01/10 00:04:47;;;;;;;28.33;14.32;;;1.90;99.90;;;;;;5106921;28;20043;-82
2022/01/10 00:07:13;;;;;;;25.25;12.82;;;1.80;99.90;;;;;;5112174;28;20524;-81
2022/01/10 00:09:39;;;;;;;25.13;10.27;;;1.80;99.90;;;;;;5103958;28;20039;-81
2022/01/10 00:12:05;;;;;;;23.65;8.77;;;1.80;99.90;;;;;;5108151;28;20047;-83
2022/01/10 00:14:31;;;;;;;31.83;8.45;;;1.70;99.90;;;;;;5091391;28;20748;-80
2022/01/10 00:16:56;;;;;;;21.98;8.02;;;1.60;99.90;;;;;;5103559;28;20043;-82
2022/01/10 00:19:22;;;;;;;19.25;7.03;;;1.60;99.90;;;;;;5096353;28;20595;-81
2022/01/10 00:21:48;;;;;;;50.17;11.75;;;1.50;99.90;;;;;;5095207;28;20074;-83
2022/01/10 00:24:14;;;;;;;16.13;7.60;;;1.60;99.90;;;;;;5072699;28;20102;-75
2022/01/10 00:26:39;;;;;;;28.38;7.85;;;1.50;99.90;;;;;;5104277;28;20040;-82
2022/01/10 00:29:05;;;;;;;18.38;7.38;;;1.60;99.90;;;;;;5075608;28;20052;-83
2022/01/10 00:31:30;;;;;;;18.38;10.02;;;1.50;99.90;;;;;;5101431;28;20553;-83
2022/01/10 00:33:56;;;;;;;18.90;6.75;;;1.60;99.90;;;;;;5099032;28;20043;-82
2022/01/10 00:36:21;;;;;;;29.52;7.97;;;1.50;99.90;;;;;;5091353;28;20161;-80
2022/01/10 00:38:47;;;;;;;30.25;8.68;;;1.60;99.90;;;;;;5080843;28;20066;-81
2022/01/10 00:41:13;;;;;;;24.35;7.13;;;1.60;99.90;;;;;;5106867;28;20044;-80
2022/01/10 00:43:45;;;;;;;23.38;8.85;;;1.50;99.90;;;;;;5109241;28;20059;-79
2022/01/10 00:46:10;;;;;;;22.20;6.72;;;1.50;99.90;;;;;;5097632;28;20044;-80
2022/01/10 00:48:36;;;;;;;25.73;7.18;;;1.50;99.90;;;;;;5092396;28;20055;-80
2022/01/10 00:51:02;;;;;;;20.77;5.10;;;1.30;99.90;;;;;;5093367;28;20035;-80
2022/01/10 00:53:28;;;;;;;28.13;8.70;;;1.40;99.90;;;;;;5086395;28;20044;-82
2022/01/10 00:55:53;;;;;;;28.13;7.07;;;1.40;99.90;;;;;;5090699;28;20397;-82
2022/01/10 00:58:19;;;;;;;18.60;5.32;;;1.50;99.90;;;;;;5090667;28;20028;-83
2022/01/10 01:00:44;;;;;;;16.77;6.72;;;1.40;99.90;;;;;;5090484;28;20044;-81
2022/01/10 01:03:10;;;;;;;15.45;5.47;;;1.30;99.90;;;;;;5091113;28;20131;-82
2022/01/10 01:05:40;;;;;;;18.45;6.35;;;1.30;99.90;;;;;;5089368;28;20040;-82
2022/01/10 01:08:08;;;;;;;20.38;5.47;;;1.40;99.90;;;;;;5090867;28;20090;-82
2022/01/10 01:13:23;;;;;;;37.55;7.85;;;1.20;99.90;;;;;;5106342;28;20489;-84
2022/01/10 01:16:09;;;;;;;30.48;8.05;;;1.30;99.90;;;;;;5101734;28;20046;-82
2022/01/10 01:24:08;;;;;;;32.88;7.13;;;1.10;99.90;;;;;;5088741;28;20048;-81
2022/01/10 01:26:37;;;;;;;20.58;5.38;;;1.20;99.90;;;;;;5091744;28;20448;-80
2022/01/10 01:29:07;;;;;;;16.23;5.88;;;1.20;99.90;;;;;;5072798;28;20505;-81
2022/01/10 01:31:33;;;;;;;15.63;6.85;;;1.20;99.90;;;;;;5096507;28;20044;-81
2022/01/10 01:33:59;;;;;;;24.08;6.75;;;1.10;99.90;;;;;;5092837;28;20123;-81
2022/01/10 01:36:26;;;;;;;21.55;7.80;;;1.10;99.90;;;;;;5098431;28;20557;-81
2022/01/10 01:38:55;;;;;;;17.95;6.68;;;1.10;99.90;;;;;;5083941;28;20153;-81
2022/01/10 01:41:35;;;;;;;29.30;9.13;;;1.20;99.90;;;;;;5101857;28;20444;-81
2022/01/10 01:44:02;;;;;;;20.77;8.23;;;1.10;99.90;;;;;;5090112;28;20044;-82
2022/01/10 01:46:29;;;;;;;23.23;8.57;;;1.10;99.90;;;;;;5096539;28;20439;-82
2022/01/10 01:48:55;;;;;;;29.88;8.90;;;1.10;99.90;;;;;;5091781;28;20504;-81
2022/01/10 01:51:21;;;;;;;29.33;7.03;;;1.10;99.90;;;;;;5092422;28;20035;-81
2022/01/10 01:53:48;;;;;;;24.13;8.05;;;1.10;99.90;;;;;;5078319;28;20123;-82
2022/01/10 01:56:15;;;;;;;19.85;7.32;;;1.10;99.90;;;;;;5095245;28;20147;-76
2022/01/10 01:58:41;;;;;;;20.48;8.93;;;1.00;99.90;;;;;;5091455;28;20044;-83
2022/01/10 02:01:08;;;;;;;30.02;8.73;;;1.10;99.90;;;;;;5091422;28;20048;-83
2022/01/10 02:03:37;;;;;;;21.23;6.45;;;0.90;99.90;;;;;;5095746;28;20544;-82
2022/01/10 02:06:03;;;;;;;59.08;9.60;;;1.00;99.90;;;;;;5103910;28;20097;-80
2022/01/10 02:08:29;;;;;;;34.40;8.43;;;1.00;99.90;;;;;;5076480;28;20131;-81
2022/01/10 02:10:54;;;;;;;19.55;7.30;;;1.00;99.90;;;;;;5089340;28;20111;-81
2022/01/10 02:13:20;;;;;;;29.27;7.80;;;1.00;99.90;;;;;;5088938;28;20513;-79
2022/01/10 02:15:56;;;;;;;24.73;6.53;;;1.00;99.90;;;;;;5089711;28;20094;-81
2022/01/10 02:18:22;;;;;;;26.73;8.02;;;1.00;99.90;;;;;;5089497;28;20486;-81
2022/01/10 02:20:48;;;;;;;21.27;8.55;;;1.00;99.90;;;;;;5089330;28;20105;-82
2022/01/10 02:23:15;;;;;;;28.45;8.93;;;0.90;99.90;;;;;;5105195;28;20039;-78
2022/01/10 02:25:43;;;;;;;17.75;7.97;;;0.90;99.90;;;;;;5102442;28;20078;-82
2022/01/10 02:28:09;;;;;;;27.67;9.68;;;1.00;99.90;;;;;;5103729;28;20100;-81
2022/01/10 02:30:34;;;;;;;31.23;9.18;;;1.00;99.90;;;;;;5097843;28;20079;-81
2022/01/10 02:33:01;;;;;;;28.33;7.57;;;1.00;99.90;;;;;;5098820;28;20075;-81
2022/01/10 02:35:51;;;;;;;19.52;8.05;;;1.00;99.90;;;;;;5096302;28;20043;-80
2022/01/10 02:38:17;;;;;;;;;;;1.00;99.90;;;;;;5111561;28;20388;-81
2022/01/10 02:40:44;;;;;;;24.55;8.27;;;1.00;99.90;;;;;;5098263;28;19930;-81
2022/01/10 02:43:10;;;;;;;18.65;6.82;;;0.90;99.90;;;;;;5085686;28;20055;-80
2022/01/10 02:45:35;;;;;;;27.63;9.88;;;1.10;99.90;;;;;;5093118;28;20055;-79
2022/01/10 02:48:01;;;;;;;22.45;7.78;;;1.00;99.90;;;;;;5095307;28;20058;-83
2022/01/10 02:50:27;;;;;;;25.55;9.02;;;1.10;99.90;;;;;;5092900;28;20120;-81
2022/01/10 02:52:53;;;;;;;40.90;11.68;;;1.00;99.90;;;;;;5076557;28;20096;-83
2022/01/10 02:55:19;;;;;;;31.20;11.20;;;0.90;99.90;;;;;;5092611;28;20443;-82
2022/01/10 02:57:45;;;;;;;29.75;7.60;;;0.90;99.90;;;;;;5092363;28;20032;-80
2022/01/10 03:00:19;;;;;;;35.13;9.40;;;0.90;99.90;;;;;;5094441;28;20080;-84
2022/01/10 03:02:49;;;;;;;26.90;10.05;;;0.90;99.90;;;;;;5080216;28;20043;-82
2022/01/10 03:05:15;;;;;;;20.60;7.90;;;1.00;99.90;;;;;;5093708;28;20044;-82
2022/01/10 03:07:41;;;;;;;28.77;9.32;;;0.90;99.90;;;;;;5093810;28;20052;-82
2022/01/10 03:10:07;;;;;;;35.75;10.88;;;0.80;99.90;;;;;;5094505;28;20037;-82
2022/01/10 03:12:34;;;;;;;25.92;9.30;;;0.80;99.90;;;;;;5093151;28;20044;-83
2022/01/10 03:15:00;;;;;;;24.25;11.52;;;0.90;99.90;;;;;;5093405;28;20104;-82
2022/01/10 03:17:26;;;;;;;20.30;8.93;;;0.70;99.90;;;;;;5096489;28;20048;-82
2022/01/10 03:19:52;;;;;;;23.20;9.05;;;0.80;99.90;;;;;;5102375;28;20108;-83
2022/01/10 03:22:17;;;;;;;57.63;12.13;;;0.80;99.90;;;;;;5111145;28;20070;-83
2022/01/10 03:24:43;;;;;;;26.83;9.15;;;0.70;99.90;;;;;;5099512;28;20043;-84
2022/01/10 03:27:09;;;;;;;30.13;10.75;;;0.70;99.90;;;;;;5097429;28;20459;-82
2022/01/10 03:29:34;;;;;;;21.23;9.85;;;0.70;99.90;;;;;;5091428;28;20044;-84
2022/01/10 03:32:01;;;;;;;26.95;11.25;;;0.70;99.90;;;;;;5092338;28;20556;-84
2022/01/10 03:34:30;;;;;;;23.02;10.48;;;0.80;99.90;;;;;;5098215;28;20138;-84
2022/01/10 03:36:56;;;;;;;26.88;11.68;;;0.80;99.90;;;;;;5099438;28;20050;-82
2022/01/10 03:39:22;;;;;;;28.83;11.45;;;0.70;99.90;;;;;;5074372;28;20131;-84
2022/01/10 03:41:47;;;;;;;23.60;11.50;;;0.80;99.90;;;;;;5100952;28;20130;-82
2022/01/10 03:44:13;;;;;;;33.42;13.35;;;0.70;99.90;;;;;;5090794;28;20527;-83
2022/01/10 03:46:38;;;;;;;36.60;13.85;;;0.70;99.90;;;;;;5104797;28;20044;-83
2022/01/10 03:49:04;;;;;;;23.77;10.98;;;0.70;99.90;;;;;;5094037;28;20075;-84
2022/01/10 03:51:30;;;;;;;37.90;14.13;;;0.60;99.90;;;;;;5090737;28;20398;-82
2022/01/10 03:53:56;;;;;;;32.92;14.27;;;0.70;99.90;;;;;;5100006;28;20044;-83
2022/01/10 03:56:24;;;;;;;35.55;14.05;;;0.80;99.90;;;;;;5081722;28;20043;-83
2022/01/10 03:58:50;;;;;;;27.75;12.45;;;0.60;99.90;;;;;;5092893;28;20052;-83
2022/01/10 04:01:15;;;;;;;32.28;13.05;;;0.60;99.90;;;;;;5091119;28;20047;-83
2022/01/10 04:03:42;;;;;;;43.72;14.98;;;0.60;99.90;;;;;;5075697;28;20047;-80
2022/01/10 04:06:08;;;;;;;28.17;13.60;;;0.60;99.90;;;;;;5099650;28;20232;-81
2022/01/10 04:08:34;;;;;;;62.53;17.08;;;0.70;99.90;;;;;;5089795;28;20059;-83
2022/01/10 04:11:00;;;;;;;31.20;14.38;;;0.70;99.90;;;;;;5084259;28;20059;-82
2022/01/10 04:13:26;;;;;;;31.27;15.35;;;0.60;99.90;;;;;;5091820;28;20036;-82
2022/01/10 04:15:52;;;;;;;26.05;14.13;;;0.50;99.90;;;;;;5074494;28;20048;-83
2022/01/10 04:18:18;;;;;;;35.47;14.10;;;0.50;99.90;;;;;;5073993;28;20135;-82
2022/01/10 04:20:45;;;;;;;37.90;15.68;;;0.50;99.90;;;;;;5091933;28;20610;-79
2022/01/10 04:23:12;;;;;;;29.90;15.48;;;0.50;99.90;;;;;;5073880;28;20044;-83
2022/01/10 04:25:38;;;;;;;43.55;16.95;;;0.60;99.90;;;;;;5091465;28;20044;-84
2022/01/10 04:28:04;;;;;;;30.70;16.25;;;0.60;99.90;;;;;;5090334;28;20050;-83
2022/01/10 04:30:30;;;;;;;33.65;16.15;;;0.50;99.90;;;;;;5107741;28;20048;-83
2022/01/10 04:33:00;;;;;;;42.85;15.95;;;0.60;99.90;;;;;;5098722;28;20043;-83
2022/01/10 04:35:27;;;;;;;35.70;16.92;;;0.50;99.90;;;;;;5072403;28;20047;-83
2022/01/10 04:37:53;;;;;;;68.63;19.30;;;0.40;99.90;;;;;;5101369;28;20115;-84
2022/01/10 04:40:19;;;;;;;33.72;16.15;;;0.40;99.90;;;;;;5093969;28;20044;-87
2022/01/10 04:42:44;;;;;;;35.80;16.27;;;0.50;99.90;;;;;;5071825;28;20052;-80
2022/01/10 04:45:10;;;;;;;30.58;15.32;;;0.40;99.90;;;;;;5091794;28;20063;-84
2022/01/10 04:47:36;;;;;;;64.50;21.17;;;0.50;99.90;;;;;;5093324;28;20096;-83
2022/01/10 04:50:25;;;;;;;37.20;16.58;;;0.40;99.90;;;;;;5091373;28;20044;-83
2022/01/10 04:52:52;;;;;;;45.38;18.33;;;0.40;99.90;;;;;;5092861;28;20051;-83
2022/01/10 04:55:19;;;;;;;37.25;17.35;;;0.30;99.90;;;;;;5073001;28;20036;-82
2022/01/10 04:57:45;;;;;;;33.10;17.70;;;0.40;99.90;;;;;;5077006;28;20055;-79
2022/01/10 05:00:14;;;;;;;37.45;17.67;;;0.50;99.90;;;;;;5090983;28;20046;-83
2022/01/10 05:02:42;;;;;;;57.55;18.33;;;0.40;99.90;;;;;;5090742;28;20044;-80
2022/01/10 05:05:08;;;;;;;36.17;18.15;;;0.40;99.90;;;;;;5103719;28;20044;-81
2022/01/10 05:07:34;;;;;;;45.50;18.48;;;0.50;99.90;;;;;;5098869;28;20054;-81
2022/01/10 05:09:59;;;;;;;44.22;19.35;;;0.30;99.90;;;;;;5080992;28;20509;-79
2022/01/10 05:12:27;;;;;;;41.47;18.77;;;0.40;99.90;;;;;;5090948;28;20043;-82
2022/01/10 05:14:53;;;;;;;34.13;18.20;;;0.40;99.90;;;;;;5071485;28;20044;-82
2022/01/10 05:17:21;;;;;;;62.33;19.25;;;0.40;99.90;;;;;;5089797;28;20520;-81
2022/01/10 05:19:46;;;;;;;39.90;18.58;;;0.30;99.90;;;;;;5090171;28;20043;-82
2022/01/10 05:22:12;;;;;;;37.58;20.42;;;0.30;99.90;;;;;;5072224;28;20036;-82
2022/01/10 05:24:38;;;;;;;41.47;19.23;;;0.30;99.90;;;;;;5096856;28;20035;-83
2022/01/10 05:27:04;;;;;;;43.30;21.33;;;0.30;99.90;;;;;;5090891;28;20325;-82
2022/01/10 05:29:30;;;;;;;40.10;20.15;;;0.30;99.90;;;;;;5095359;28;20622;-83
2022/01/10 05:31:55;;;;;;;41.47;19.92;;;0.30;99.90;;;;;;5089500;28;20131;-84
2022/01/10 05:34:21;;;;;;;41.80;20.58;;;0.30;99.90;;;;;;5072793;28;20063;-81
2022/01/10 05:36:46;;;;;;;56.35;22.90;;;0.30;99.90;;;;;;5075083;28;20048;-82
2022/01/10 05:39:12;;;;;;;36.33;20.35;;;0.30;99.90;;;;;;5097716;28;20039;-81
2022/01/10 05:41:38;;;;;;;47.67;23.98;;;0.30;99.90;;;;;;5089706;28;20041;-81
2022/01/10 05:44:04;;;;;;;45.15;22.42;;;0.30;99.90;;;;;;5071998;28;20063;-83
2022/01/10 05:46:31;;;;;;;39.90;23.02;;;0.30;99.90;;;;;;5089362;28;20064;-81
2022/01/10 05:49:01;;;;;;;49.92;23.92;;;0.30;99.90;;;;;;5090974;28;20089;-82
2022/01/10 05:51:29;;;;;;;;;;;0.40;99.90;;;;;;5090353;28;20452;-82
2022/01/10 05:53:55;;;;;;;40.20;22.10;;;0.30;99.90;;;;;;5092634;28;19927;-82
2022/01/10 05:56:21;;;;;;;44.88;23.35;;;0.20;99.90;;;;;;5104275;28;20126;-82
2022/01/10 05:58:46;;;;;;;55.97;25.65;;;0.30;99.90;;;;;;5097151;28;20123;-81
2022/01/10 06:01:12;;;;;;;46.38;25.25;;;0.20;99.90;;;;;;5096061;28;20046;-83
2022/01/10 06:03:38;;;;;;;50.58;25.00;;;0.30;99.90;;;;;;5098525;28;20073;-82
2022/01/10 06:06:03;;;;;;;50.03;22.67;;;0.30;99.90;;;;;;5093939;28;20043;-82
2022/01/10 06:08:29;;;;;;;51.22;23.75;;;0.30;99.90;;;;;;5089616;28;20084;-82
2022/01/10 06:10:54;;;;;;;50.33;23.83;;;0.30;99.90;;;;;;5079583;28;20052;-83
2022/01/10 06:13:20;;;;;;;46.90;23.70;;;0.30;99.90;;;;;;5075447;28;20047;-83
2022/01/10 06:15:46;;;;;;;52.17;24.83;;;0.20;99.90;;;;;;5072498;28;20044;-84
2022/01/10 06:18:12;;;;;;;43.20;25.27;;;0.20;99.90;;;;;;5073456;28;20040;-83
2022/01/10 06:20:37;;;;;;;53.70;24.60;;;0.20;99.90;;;;;;5092177;28;20524;-81
2022/01/10 06:23:03;;;;;;;48.90;23.63;;;0.20;99.90;;;;;;5093052;28;20478;-84
2022/01/10 06:25:29;;;;;;;66.65;25.23;;;0.20;99.90;;;;;;5070597;28;20080;-82
2022/01/10 06:27:56;;;;;;;38.38;23.13;;;0.20;99.90;;;;;;5091286;28;20058;-83
2022/01/10 06:30:21;;;;;;;56.88;24.67;;;0.20;99.90;;;;;;5089592;28;20041;-82
2022/01/10 06:32:47;;;;;;;36.45;23.00;;;0.10;99.90;;;;;;5073721;28;20051;-84
2022/01/10 06:35:13;;;;;;;46.05;23.45;;;0.10;99.90;;;;;;5074992;28;20040;-83
2022/01/10 06:37:39;;;;;;;43.83;23.48;;;0.10;99.90;;;;;;5094307;28;20084;-82
2022/01/10 06:40:06;;;;;;;50.25;26.10;;;0.20;99.90;;;;;;5070889;28;20044;-84
2022/01/10 06:42:32;;;;;;;64.32;24.65;;;0.10;99.90;;;;;;5103851;28;20040;-85
2022/01/10 06:44:57;;;;;;;50.97;24.08;;;0.10;99.90;;;;;;5071108;28;20052;-81
2022/01/10 06:47:23;;;;;;;56.10;23.33;;;0.00;99.90;;;;;;5089220;28;20131;-82
2022/01/10 06:49:49;;;;;;;56.35;25.30;;;0.00;99.90;;;;;;5092365;28;20082;-81
2022/01/10 06:52:15;;;;;;;38.50;21.13;;;0.00;99.90;;;;;;5094225;28;20036;-80
2022/01/10 06:54:41;;;;;;;51.85;24.92;;;0.00;99.90;;;;;;5101303;28;20093;-80
2022/01/10 06:57:07;;;;;;;46.88;25.90;;;0.10;99.90;;;;;;5104652;28;20047;-80
2022/01/10 06:59:32;;;;;;;36.95;20.98;;;0.00;99.90;;;;;;5089549;28;20457;-81
2022/01/10 07:01:58;;;;;;;56.03;25.05;;;0.00;99.90;;;;;;5095231;28;20040;-82
2022/01/10 07:04:25;;;;;;;41.42;25.83;;;-0.10;99.90;;;;;;5100386;28;20135;-82
2022/01/10 07:06:51;;;;;;;54.55;31.63;;;-0.10;99.90;;;;;;5093474;28;20051;-82
2022/01/10 07:09:17;;;;;;;54.50;29.42;;;-0.10;99.90;;;;;;5063210;28;20055;-80
2022/01/10 07:11:42;;;;;;;46.38;27.20;;;0.00;99.90;;;;;;5110145;28;20036;-80
2022/01/10 07:14:08;;;;;;;52.45;26.60;;;0.10;99.90;;;;;;5110758;28;20092;-78
2022/01/10 07:16:34;;;;;;;47.22;27.95;;;0.00;99.90;;;;;;5075456;28;20397;-81
2022/01/10 07:19:01;;;;;;;56.10;26.30;;;0.00;99.90;;;;;;5059782;28;20085;-81
2022/01/10 07:21:27;;;;;;;53.17;26.48;;;0.10;99.90;;;;;;5080472;28;20028;-81
2022/01/10 07:23:53;;;;;;;60.75;33.25;;;0.00;99.90;;;;;;5092402;28;20047;-85
2022/01/10 07:26:18;;;;;;;69.30;35.47;;;0.10;99.90;;;;;;5093101;28;20048;-84
2022/01/10 07:28:44;;;;;;;70.28;37.38;;;0.00;99.90;;;;;;5058358;28;20054;-80
2022/01/10 07:31:10;;;;;;;65.47;34.35;;;-0.10;99.90;;;;;;5093043;28;20064;-81
2022/01/10 07:33:37;;;;;;;57.15;32.05;;;-0.10;99.90;;;;;;5092646;28;20044;-82
2022/01/10 07:36:03;;;;;;;53.00;29.58;;;0.00;99.90;;;;;;5074839;28;20048;-82
2022/01/10 07:38:35;;;;;;;46.47;27.23;;;-0.10;99.90;;;;;;5091869;28;20115;-81
2022/01/10 07:41:01;;;;;;;49.20;26.67;;;0.00;99.90;;;;;;5093500;28;20438;-82
2022/01/10 07:43:26;;;;;;;41.45;25.33;;;0.00;99.90;;;;;;5074060;28;20119;-81
2022/01/10 07:45:52;;;;;;;41.55;24.00;;;-0.10;99.90;;;;;;5092558;28;20123;-82
2022/01/10 07:48:18;;;;;;;65.35;34.03;;;-0.10;99.90;;;;;;5091909;28;20043;-80
2022/01/10 07:50:43;;;;;;;69.13;34.60;;;0.00;99.90;;;;;;5120838;27;20038;-75
2022/01/10 07:53:09;;;;;;;54.92;27.42;;;-0.10;99.90;;;;;;5129150;27;20047;-81
2022/01/10 07:55:35;;;;;;;52.10;26.92;;;-0.10;99.90;;;;;;5109716;28;20485;-84
2022/01/10 07:58:00;;;;;;;35.58;23.30;;;0.00;99.90;;;;;;5076158;28;20075;-80
2022/01/10 08:00:26;;;;;;;35.63;22.80;;;0.00;99.90;;;;;;5106720;28;20080;-80
2022/01/10 08:02:51;;;;;;;40.42;25.20;;;0.00;99.90;;;;;;5084104;28;20051;-79
2022/01/10 08:05:17;;;;;;;49.78;27.25;;;0.00;99.90;;;;;;5087392;28;20040;-78
2022/01/10 08:07:43;;;;;;;60.47;32.13;;;0.00;99.90;;;;;;5082088;28;20498;-79
2022/01/10 08:10:09;;;;;;;39.72;26.10;;;-0.10;99.90;;;;;;5088316;28;20039;-86
2022/01/10 08:12:34;;;;;;;49.88;27.00;;;-0.10;99.90;;;;;;5111637;28;20058;-80
2022/01/10 08:15:00;;;;;;;38.13;23.10;;;-0.10;99.90;;;;;;5106385;28;20040;-77
2022/01/10 08:17:25;;;;;;;44.90;25.30;;;-0.10;99.90;;;;;;5091999;28;20044;-79
2022/01/10 08:19:51;;;;;;;34.72;21.48;;;0.00;99.90;;;;;;5071886;28;20043;-80
2022/01/10 08:22:17;;;;;;;37.08;23.88;;;-0.10;99.90;;;;;;5071807;28;20100;-79
2022/01/10 08:24:42;;;;;;;40.53;23.13;;;0.00;99.90;;;;;;5088549;28;20371;-79
2022/01/10 08:27:08;;;;;;;40.03;23.65;;;-0.10;99.90;;;;;;5071821;28;20044;-79
2022/01/10 08:29:34;;;;;;;51.05;24.73;;;0.10;99.90;;;;;;5071257;28;20402;-79
2022/01/10 08:31:59;;;;;;;36.17;23.45;;;0.00;99.90;;;;;;5089839;28;20478;-80
2022/01/10 08:34:25;;;;;;;40.63;24.27;;;0.00;99.90;;;;;;5089593;28;20478;-78
2022/01/10 08:36:56;;;;;;;33.83;22.92;;;0.10;99.90;;;;;;5089622;28;20064;-78
2022/01/10 08:39:21;;;;;;;46.05;23.40;;;0.20;99.90;;;;;;5088448;28;20055;-79
2022/01/10 08:41:47;;;;;;;42.60;25.75;;;0.10;99.90;;;;;;5089796;28;20123;-79
2022/01/10 08:44:14;;;;;;;41.80;24.77;;;0.20;99.90;;;;;;5071558;28;20052;-79
2022/01/10 08:46:40;;;;;;;41.92;24.60;;;0.20;99.90;;;;;;5089652;28;20052;-78
2022/01/10 08:49:06;;;;;;;36.67;24.92;;;0.30;99.90;;;;;;5089411;28;20059;-78
2022/01/10 08:51:33;;;;;;;49.78;25.20;;;0.30;99.90;;;;;;5070801;28;20040;-78
2022/01/10 08:53:59;;;;;;;38.80;26.27;;;0.30;99.90;;;;;;5088358;28;20111;-78
2022/01/10 08:56:25;;;;;;;44.78;25.30;;;0.30;99.90;;;;;;5089152;28;20048;-79
2022/01/10 08:58:51;;;;;;;36.95;24.35;;;0.40;99.90;;;;;;5089415;28;20508;-78
2022/01/10 09:01:19;;;;;;;48.10;27.63;;;0.40;99.90;;;;;;5089061;28;20032;-78
2022/01/10 09:03:45;;;;;;;41.83;27.17;;;0.50;99.90;;;;;;5089173;28;20110;-77
2022/01/10 09:06:10;;;;;;;50.75;27.73;;;0.50;99.90;;;;;;5089572;28;20463;-78
2022/01/10 09:08:39;;;;;;;56.80;27.70;;;0.60;99.90;;;;;;5069465;28;20043;-78
2022/01/10 09:11:05;;;;;;;38.95;23.85;;;0.60;99.90;;;;;;5089455;28;20040;-77
2022/01/10 09:13:31;;;;;;;46.60;28.00;;;0.60;99.90;;;;;;5070776;28;20406;-78
2022/01/10 09:15:57;;;;;;;42.22;26.52;;;0.80;99.90;;;;;;5070834;28;20048;-77
2022/01/10 09:18:23;;;;;;;41.78;26.85;;;0.80;99.90;;;;;;5088719;28;20203;-78
2022/01/10 09:20:50;;;;;;;44.20;26.90;;;0.80;99.90;;;;;;5088784;28;20052;-78
2022/01/10 09:23:16;;;;;;;43.25;24.52;;;0.80;99.90;;;;;;5087933;28;20054;-78
2022/01/10 09:25:42;;;;;;;48.63;26.02;;;0.90;99.90;;;;;;5088991;28;20422;-78
2022/01/10 09:28:07;;;;;;;47.20;25.20;;;0.90;99.90;;;;;;5088699;28;20086;-78
2022/01/10 09:30:33;;;;;;;49.63;25.98;;;1.10;99.90;;;;;;5088687;28;20497;-78
2022/01/10 09:32:59;;;;;;;41.85;26.73;;;1.00;99.90;;;;;;5070530;28;20130;-78
2022/01/10 09:35:25;;;;;;;36.42;24.52;;;1.10;99.90;;;;;;5053511;28;20043;-78
2022/01/10 09:37:50;;;;;;;40.50;26.13;;;1.20;99.90;;;;;;5069531;28;20200;-78
2022/01/10 09:40:18;;;;;;;39.88;25.85;;;1.10;99.90;;;;;;5070469;28;20040;-78
2022/01/10 09:42:45;;;;;;;42.03;24.17;;;1.30;99.90;;;;;;5088709;28;20044;-73
2022/01/10 09:45:10;;;;;;;50.03;26.88;;;1.20;99.90;;;;;;5088631;28;20044;-78
2022/01/10 09:47:36;;;;;;;59.08;25.63;;;1.30;99.90;;;;;;5069838;28;20060;-79
2022/01/10 09:50:03;;;;;;;43.22;24.98;;;1.30;99.90;;;;;;5070241;28;20040;-79
2022/01/10 09:52:29;;;;;;;40.63;24.13;;;1.50;99.90;;;;;;5070126;28;20134;-79
2022/01/10 09:54:55;;;;;;;45.33;27.27;;;1.50;99.90;;;;;;5069032;28;20078;-79
2022/01/10 09:57:21;;;;;;;41.85;25.95;;;1.50;99.90;;;;;;5069966;28;20075;-80
2022/01/10 09:59:47;;;;;;;44.88;24.95;;;1.50;99.90;;;;;;5053406;28;20044;-80
2022/01/10 10:02:15;;;;;;;40.83;26.70;;;1.40;99.90;;;;;;5088390;28;20048;-73
2022/01/10 10:04:41;;;;;;;44.35;25.13;;;1.50;99.90;;;;;;5070225;28;20128;-80
2022/01/10 10:07:07;;;;;;;42.65;27.35;;;1.70;99.90;;;;;;5088188;28;20043;-80
2022/01/10 10:09:34;;;;;;;41.08;26.83;;;1.70;99.90;;;;;;5087038;28;20093;-80
2022/01/10 10:12:01;;;;;;;44.65;24.73;;;1.80;99.90;;;;;;5053452;28;20052;-81
2022/01/10 10:14:27;;;;;;;40.83;26.80;;;1.70;99.90;;;;;;5087942;28;20082;-80
2022/01/10 10:16:57;;;;;;;41.92;26.30;;;1.90;99.90;;;;;;5088175;28;20048;-80
2022/01/10 10:19:28;;;;;;;35.97;25.33;;;1.90;99.90;;;;;;5088228;28;20075;-81
2022/01/10 10:21:56;;;;;;;42.97;28.05;;;2.00;99.90;;;;;;5070084;28;20135;-81
2022/01/10 10:24:22;;;;;;;38.83;26.05;;;2.10;99.90;;;;;;5087003;28;20046;-81
2022/01/10 10:26:50;;;;;;;42.83;28.23;;;2.10;99.90;;;;;;5088081;28;20436;-79
2022/01/10 10:29:18;;;;;;;44.33;29.02;;;2.10;99.90;;;;;;5087681;28;20052;-80
2022/01/10 10:31:46;;;;;;;43.45;27.75;;;2.10;99.90;;;;;;5088470;28;20394;-76
2022/01/10 10:34:19;;;;;;;47.45;24.63;;;2.30;99.90;;;;;;5070269;28;20063;-80
2022/01/10 10:36:46;;;;;;;39.17;24.80;;;2.20;99.90;;;;;;5070105;28;20071;-80
2022/01/10 10:39:11;;;;;;;48.15;26.13;;;2.40;99.90;;;;;;5087236;28;20047;-80
2022/01/10 10:41:39;;;;;;;37.78;24.02;;;2.40;99.90;;;;;;5087617;28;20040;-81
2022/01/10 10:44:05;;;;;;;45.88;26.08;;;2.40;99.90;;;;;;5087675;28;20052;-79
2022/01/10 10:46:31;;;;;;;36.72;23.73;;;2.60;99.90;;;;;;5087731;28;20059;-80
2022/01/10 10:49:03;;;;;;;36.47;23.95;;;2.60;99.90;;;;;;5073825;28;20482;-80
2022/01/10 10:51:34;;;;;;;37.97;23.55;;;2.70;99.90;;;;;;5091737;28;20040;-80
2022/01/10 10:54:09;;;;;;;40.03;27.38;;;2.70;99.90;;;;;;5072999;28;20048;-80
2022/01/10 10:56:39;;;;;;;43.38;26.73;;;2.60;99.90;;;;;;5073533;28;20050;-80
2022/01/10 10:59:07;;;;;;;;;;;2.70;99.90;;;;;;5074179;28;20509;-80
2022/01/10 11:01:35;;;;;;;41.85;23.70;;;2.70;99.90;;;;;;5073175;28;19920;-80
2022/01/10 11:04:01;;;;;;;35.30;23.55;;;2.90;99.90;;;;;;5091714;28;20158;-79
2022/01/10 11:06:29;;;;;;;41.08;25.80;;;3.00;99.90;;;;;;5091374;28;20363;-81
2022/01/10 11:08:55;;;;;;;37.38;24.38;;;2.90;99.90;;;;;;5090636;28;20039;-79
2022/01/10 11:11:21;;;;;;;36.75;25.42;;;3.00;99.90;;;;;;5091573;28;20073;-80
2022/01/10 11:13:48;;;;;;;39.15;24.77;;;3.00;99.90;;;;;;5091631;28;20040;-81
2022/01/10 11:16:14;;;;;;;49.72;25.70;;;3.10;99.90;;;;;;5091621;28;20309;-79
2022/01/10 11:18:40;;;;;;;38.70;23.98;;;3.20;99.90;;;;;;5092197;28;20043;-81
2022/01/10 11:21:06;;;;;;;39.35;23.85;;;3.30;99.90;;;;;;5091214;28;20040;-80
2022/01/10 11:23:37;;;;;;;46.90;25.98;;;3.30;99.90;;;;;;5090088;28;20040;-79
2022/01/10 11:26:06;;;;;;;32.50;22.45;;;3.30;99.90;;;;;;5091210;28;20130;-79
2022/01/10 11:28:31;;;;;;;35.35;22.60;;;3.40;99.90;;;;;;5090960;28;20136;-80
2022/01/10 11:31:03;;;;;;;40.85;22.55;;;3.40;99.90;;;;;;5091320;28;20123;-81
2022/01/10 11:33:32;;;;;;;41.33;25.30;;;3.60;99.90;;;;;;5091316;28;20043;-79
2022/01/10 11:36:01;;;;;;;45.35;25.17;;;3.70;99.90;;;;;;5091084;28;20116;-80
2022/01/10 11:38:43;;;;;;;43.22;23.88;;;3.70;99.90;;;;;;5071583;28;20512;-81
2022/01/10 11:41:13;;;;;;;36.50;22.90;;;3.90;99.90;;;;;;5073266;28;20444;-80
2022/01/10 11:43:40;;;;;;;;;;;3.80;99.90;;;;;;5091680;28;20137;-80
2022/01/10 11:46:34;;;;;;;36.58;22.80;;;3.90;99.90;;;;;;5091366;28;19942;-79
2022/01/10 11:49:03;;;;;;;34.15;21.55;;;3.90;99.90;;;;;;5072919;28;20048;-80
2022/01/10 11:51:31;;;;;;;31.95;21.83;;;3.90;99.90;;;;;;5090418;28;20401;-80
2022/01/10 11:54:26;;;;;;;39.88;24.15;;;4.00;99.90;;;;;;5071832;28;20055;-79
2022/01/10 11:56:54;;;;;;;39.42;23.15;;;4.10;99.90;;;;;;5091062;28;20055;-80
2022/01/10 11:59:26;;;;;;;47.80;24.17;;;4.10;99.90;;;;;;5071059;28;20043;-82
2022/01/10 12:02:04;;;;;;;43.30;25.30;;;4.20;99.90;;;;;;5090858;28;20040;-79
2022/01/10 12:04:38;;;;;;;37.53;22.25;;;4.20;99.90;;;;;;5090430;28;20051;-79
2022/01/10 12:07:07;;;;;;;39.35;21.63;;;4.20;99.90;;;;;;5090394;28;20052;-81
2022/01/10 12:09:33;;;;;;;37.88;22.33;;;4.30;99.90;;;;;;5089452;28;20047;-80
2022/01/10 12:12:00;;;;;;;32.60;20.02;;;4.30;99.90;;;;;;5091520;28;20446;-78
2022/01/10 12:14:27;;;;;;;44.17;23.52;;;4.40;99.90;;;;;;5091100;28;20444;-79
2022/01/10 12:16:55;;;;;;;32.88;22.60;;;4.60;99.90;;;;;;5072554;28;20397;-80
2022/01/10 12:19:21;;;;;;;34.75;21.20;;;4.50;99.90;;;;;;5090227;28;20050;-81
2022/01/10 12:21:47;;;;;;;33.95;21.48;;;4.50;99.90;;;;;;5090426;28;20402;-80
2022/01/10 12:24:14;;;;;;;53.28;24.08;;;4.60;99.90;;;;;;5089821;28;20040;-79
2022/01/10 12:26:41;;;;;;;41.15;20.92;;;4.70;99.90;;;;;;5090413;28;20058;-80
2022/01/10 12:29:08;;;;;;;34.45;20.55;;;4.70;99.90;;;;;;5089997;28;20055;-80
2022/01/10 12:31:35;;;;;;;43.58;22.80;;;4.70;99.90;;;;;;5089851;28;20044;-80
2022/01/10 12:34:02;;;;;;;33.58;20.65;;;4.80;99.90;;;;;;5072014;28;20048;-80
2022/01/10 12:36:30;;;;;;;47.80;21.00;;;4.80;99.90;;;;;;5089555;28;20040;-81
2022/01/10 12:39:03;;;;;;;42.58;23.63;;;4.90;99.90;;;;;;5089233;28;20076;-78
2022/01/10 12:41:29;;;;;;;37.08;21.65;;;4.90;99.90;;;;;;5090400;28;20081;-80
2022/01/10 12:43:56;;;;;;;41.67;21.33;;;4.90;99.90;;;;;;5090271;28;20056;-80
2022/01/10 12:46:23;;;;;;;37.03;20.63;;;5.00;99.90;;;;;;5089645;28;20135;-80
2022/01/10 12:48:50;;;;;;;34.72;21.30;;;4.90;99.90;;;;;;5071564;28;20040;-79